createdAt,value
2023-03-06T00:02:08.234Z,94419.69
2023-03-06T00:04:34.737Z,94420.31
2023-03-06T00:07:01.195Z,94420.47
2023-03-06T00:09:27.602Z,94414.13
2023-03-06T00:11:53.994Z,94419.34
2023-03-06T00:14:20.573Z,94420.47
2023-03-06T00:16:47.034Z,94413.97
2023-03-06T00:19:14.081Z,94411.94
2023-03-06T00:21:40.631Z,94405.78
2023-03-06T00:24:07.462Z,94405.47
2023-03-06T00:26:35.942Z,94400.25
2023-03-06T00:29:05.594Z,94400.41
2023-03-06T00:31:32.342Z,94400.75
2023-03-06T00:33:58.833Z,94396.00
2023-03-06T00:36:26.148Z,94387.81
2023-03-06T00:38:52.663Z,94386.84
2023-03-06T00:41:21.251Z,94387.78
2023-03-06T00:43:47.742Z,94384.00
2023-03-06T00:46:14.305Z,94385.09
2023-03-06T00:48:40.907Z,94374.84
2023-03-06T00:51:07.384Z,94370.41
2023-03-06T00:53:34.632Z,94375.78
2023-03-06T00:56:01.278Z,94365.03
2023-03-06T00:58:27.807Z,94361.25
2023-03-06T01:00:56.475Z,94351.03
2023-03-06T01:03:22.918Z,94360.63
2023-03-06T01:05:52.252Z,94358.88
2023-03-06T01:08:18.786Z,94360.75
2023-03-06T01:10:45.994Z,94356.31
2023-03-06T01:13:12.586Z,94344.00
2023-03-06T01:15:39.149Z,94341.81
2023-03-06T01:18:05.895Z,94333.63
2023-03-06T01:20:32.445Z,94331.88
2023-03-06T01:22:59.026Z,94323.50
2023-03-06T01:25:26.175Z,94330.66
2023-03-06T01:27:53.315Z,94321.00
2023-03-06T01:30:20.534Z,94324.81
2023-03-06T01:32:47.436Z,94299.38
2023-03-06T01:35:14.609Z,94298.13
2023-03-06T01:37:41.203Z,94291.97
2023-03-06T01:40:09.382Z,94282.81
2023-03-06T01:42:35.852Z,94288.34
2023-03-06T01:45:06.583Z,94285.06
2023-03-06T01:47:35.065Z,94271.75
2023-03-06T01:50:03.166Z,94267.81
2023-03-06T01:52:32.721Z,94256.59
2023-03-06T01:55:03.503Z,94245.53
2023-03-06T01:57:33.526Z,94258.00
2023-03-06T02:00:06.805Z,94258.13
2023-03-06T02:02:40.305Z,94238.56
2023-03-06T02:05:08.712Z,94246.00
2023-03-06T02:07:37.072Z,94244.91
2023-03-06T02:10:05.628Z,94232.44
2023-03-06T02:12:32.476Z,94245.06
2023-03-06T02:15:04.390Z,94234.25
2023-03-06T02:17:33.641Z,94242.13
2023-03-06T02:20:05.625Z,94225.41
2023-03-06T02:22:39.695Z,94216.44
2023-03-06T02:25:15.402Z,94225.91
2023-03-06T02:27:42.671Z,94219.13
2023-03-06T02:30:10.635Z,94211.06
2023-03-06T02:32:37.210Z,94221.03
2023-03-06T02:35:07.235Z,94207.28
2023-03-06T02:37:33.713Z,94210.16
2023-03-06T02:40:08.231Z,94195.63
2023-03-06T02:42:34.824Z,94198.16
2023-03-06T02:45:04.963Z,94197.19
2023-03-06T02:47:31.733Z,94192.34
2023-03-06T02:49:58.761Z,94194.69
2023-03-06T02:52:25.258Z,94192.66
2023-03-06T02:54:51.750Z,94189.16
2023-03-06T02:57:18.300Z,94190.88
2023-03-06T02:59:45.430Z,94191.38
2023-03-06T03:02:12.696Z,94179.69
2023-03-06T03:04:39.230Z,94182.56
2023-03-06T03:07:07.456Z,94174.16
2023-03-06T03:09:36.442Z,94162.66
2023-03-06T03:12:05.264Z,94172.59
2023-03-06T03:14:32.521Z,94173.69
2023-03-06T03:16:58.982Z,94168.50
2023-03-06T03:19:27.416Z,94167.69
2023-03-06T03:21:54.105Z,94179.53
2023-03-06T03:24:22.804Z,94164.84
2023-03-06T03:26:49.590Z,94169.44
2023-03-06T03:29:19.016Z,94163.13
2023-03-06T03:31:45.571Z,94158.38
2023-03-06T03:34:12.064Z,94157.97
2023-03-06T03:36:40.656Z,94168.19
2023-03-06T03:39:09.506Z,94159.19
2023-03-06T03:41:37.174Z,94160.91
2023-03-06T03:44:06.881Z,94150.81
2023-03-06T03:46:36.463Z,94149.75
2023-03-06T03:49:04.246Z,94139.19
2023-03-06T03:51:31.627Z,94154.28
2023-03-06T03:53:59.957Z,94154.41
2023-03-06T03:56:29.823Z,94152.06
2023-03-06T03:59:04.114Z,94148.28
2023-03-06T04:01:39.427Z,94143.41
2023-03-06T04:04:06.474Z,94152.09
2023-03-06T04:06:36.153Z,94151.13
2023-03-06T04:09:04.987Z,94149.72
2023-03-06T04:11:32.013Z,94143.09
2023-03-06T04:13:58.706Z,94122.44
2023-03-06T04:16:25.623Z,94128.41
2023-03-06T04:18:52.144Z,94124.63
2023-03-06T04:21:20.195Z,94119.25
2023-03-06T04:23:47.072Z,94119.56
2023-03-06T04:26:14.759Z,94121.38
2023-03-06T04:28:41.494Z,94106.78
2023-03-06T04:31:08.332Z,94111.22
2023-03-06T04:33:35.220Z,94114.84
2023-03-06T04:36:01.832Z,94113.13
2023-03-06T04:38:30.947Z,94107.59
2023-03-06T04:40:57.565Z,94127.16
2023-03-06T04:43:24.924Z,94124.00
2023-03-06T04:45:51.472Z,94117.84
2023-03-06T04:48:19.100Z,94113.59
2023-03-06T04:50:45.822Z,94100.19
2023-03-06T04:53:13.849Z,94115.41
2023-03-06T04:55:40.374Z,94116.88
2023-03-06T04:58:06.917Z,94107.13
2023-03-06T05:00:34.130Z,94097.84
2023-03-06T05:03:01.664Z,94113.72
2023-03-06T05:05:29.063Z,94108.63
2023-03-06T05:07:55.917Z,94113.53
2023-03-06T05:10:22.701Z,94113.06
2023-03-06T05:12:49.203Z,94111.78
2023-03-06T05:15:16.228Z,94114.06
2023-03-06T05:17:43.698Z,94110.00
2023-03-06T05:20:12.000Z,94109.31
2023-03-06T05:22:38.499Z,94106.25
2023-03-06T05:25:05.774Z,94093.81
2023-03-06T05:27:32.476Z,94096.84
2023-03-06T05:29:59.277Z,94095.44
2023-03-06T05:32:26.115Z,94090.25
2023-03-06T05:34:53.483Z,94089.00
2023-03-06T05:37:19.959Z,94088.69
2023-03-06T05:39:46.593Z,94087.91
2023-03-06T05:42:13.067Z,94086.31
2023-03-06T05:44:40.999Z,94083.97
2023-03-06T05:47:08.035Z,94086.63
2023-03-06T05:49:35.976Z,94099.06
2023-03-06T05:52:04.715Z,94097.34
2023-03-06T05:54:32.133Z,94091.97
2023-03-06T05:56:58.644Z,94102.00
2023-03-06T05:59:27.680Z,94096.81
2023-03-06T06:01:54.638Z,94080.28
2023-03-06T06:04:21.915Z,94102.00
2023-03-06T06:06:51.307Z,94102.47
2023-03-06T06:09:18.840Z,94084.63
2023-03-06T06:11:45.347Z,94099.13
2023-03-06T06:14:11.835Z,94107.28
2023-03-06T06:16:38.393Z,94104.59
2023-03-06T06:19:04.811Z,94107.56
2023-03-06T06:21:34.315Z,94104.16
2023-03-06T06:24:00.749Z,94106.63
2023-03-06T06:26:27.885Z,94107.88
2023-03-06T06:28:54.390Z,94113.84
2023-03-06T06:31:21.048Z,94112.63
2023-03-06T06:33:47.584Z,94120.50
2023-03-06T06:36:16.264Z,94120.44
2023-03-06T06:38:43.023Z,94114.22
2023-03-06T06:41:38.893Z,94112.19
2023-03-06T06:43:59.017Z,94117.19
2023-03-06T06:47:14.364Z,94116.13
2023-03-06T06:49:13.719Z,94113.34
2023-03-06T06:51:41.047Z,94121.94
2023-03-06T06:54:07.990Z,94124.06
2023-03-06T06:56:34.531Z,94126.09
2023-03-06T06:59:15.763Z,94126.91
2023-03-06T07:01:43.337Z,94133.63
2023-03-06T07:04:11.748Z,94135.59
2023-03-06T07:06:38.174Z,94139.31
2023-03-06T07:09:05.526Z,94132.13
2023-03-06T07:11:32.069Z,94122.66
2023-03-06T07:13:58.608Z,94123.94
2023-03-06T07:16:26.212Z,94128.94
2023-03-06T07:18:52.657Z,94140.78
2023-03-06T07:21:19.295Z,94130.84
2023-03-06T07:23:45.762Z,94131.97
2023-03-06T07:26:12.190Z,94135.09
2023-03-06T07:28:51.608Z,94138.59
2023-03-06T07:31:21.427Z,94138.16
2023-03-06T07:33:48.797Z,94130.31
2023-03-06T07:36:15.317Z,94120.53
2023-03-06T07:38:41.845Z,94123.06
2023-03-06T07:41:12.595Z,94131.72
2023-03-06T07:43:39.597Z,94124.13
2023-03-06T07:46:07.099Z,94106.63
2023-03-06T07:48:34.026Z,94120.19
2023-03-06T07:51:03.738Z,94120.84
2023-03-06T07:53:31.204Z,94127.50
2023-03-06T07:55:57.964Z,94123.34
2023-03-06T07:58:25.418Z,94142.19
2023-03-06T08:00:51.954Z,94128.53
2023-03-06T08:03:18.487Z,94135.84
2023-03-06T08:05:44.939Z,94132.88
2023-03-06T08:08:12.524Z,94140.28
2023-03-06T08:10:39.000Z,94141.09
2023-03-06T08:13:05.687Z,94140.56
2023-03-06T08:15:32.183Z,94137.59
2023-03-06T08:17:58.721Z,94129.69
2023-03-06T08:20:25.414Z,94138.16
2023-03-06T08:22:52.107Z,94139.50
2023-03-06T08:25:19.563Z,94136.19
2023-03-06T08:27:46.696Z,94143.25
2023-03-06T08:30:14.437Z,94150.31
2023-03-06T08:32:41.342Z,94143.41
2023-03-06T08:35:08.514Z,94164.75
2023-03-06T08:37:35.044Z,94156.63
2023-03-06T08:40:03.841Z,94154.66
2023-03-06T08:42:31.486Z,94157.69
2023-03-06T08:44:58.115Z,94149.72
2023-03-06T08:47:24.530Z,94151.09
2023-03-06T08:49:51.031Z,94156.56
2023-03-06T08:52:19.092Z,94166.78
2023-03-06T08:54:45.729Z,94160.34
2023-03-06T08:57:12.365Z,94169.50
2023-03-06T08:59:41.341Z,94169.06
2023-03-06T09:02:12.056Z,94161.50
2023-03-06T09:04:38.565Z,94160.91
2023-03-06T09:07:05.077Z,94162.22
2023-03-06T09:09:31.622Z,94171.56
2023-03-06T09:11:58.180Z,94152.22
2023-03-06T09:14:24.725Z,94160.56
2023-03-06T09:16:51.897Z,94149.94
2023-03-06T09:19:18.467Z,94169.44
2023-03-06T09:21:45.065Z,94161.03
2023-03-06T09:24:11.662Z,94160.34
2023-03-06T09:26:46.223Z,94169.56
2023-03-06T09:29:15.524Z,94163.53
2023-03-06T09:31:42.014Z,94155.41
2023-03-06T09:34:09.138Z,94171.06
2023-03-06T09:36:49.340Z,94162.50
2023-03-06T09:39:21.832Z,94164.69
2023-03-06T09:41:50.612Z,94171.63
2023-03-06T09:44:20.823Z,94170.94
2023-03-06T09:47:08.772Z,94163.63
2023-03-06T09:49:47.038Z,94160.28
2023-03-06T09:52:33.643Z,94170.22
2023-03-06T09:55:12.224Z,94158.38
2023-03-06T09:57:46.370Z,94165.19
2023-03-06T10:00:16.490Z,94165.19
2023-03-06T10:02:45.755Z,94155.41
2023-03-06T10:05:17.993Z,94176.84
2023-03-06T10:07:50.703Z,94153.56
2023-03-06T10:10:21.798Z,94146.94
2023-03-06T10:12:57.336Z,94165.41
2023-03-06T10:15:27.921Z,94144.41
2023-03-06T10:17:56.341Z,94167.31
2023-03-06T10:20:25.536Z,94171.34
2023-03-06T10:23:32.964Z,94164.69
2023-03-06T10:26:01.213Z,94173.97
2023-03-06T10:28:30.223Z,94159.91
2023-03-06T10:31:05.766Z,94163.38
2023-03-06T10:33:44.649Z,94166.38
2023-03-06T10:36:15.115Z,94165.66
2023-03-06T10:38:43.766Z,94157.72
2023-03-06T10:41:22.494Z,94155.00
2023-03-06T10:44:21.040Z,94150.94
2023-03-06T10:46:52.910Z,94159.63
2023-03-06T10:49:26.979Z,94151.97
2023-03-06T10:52:00.120Z,94148.09
2023-03-06T10:54:28.516Z,94140.00
2023-03-06T10:56:55.453Z,94143.16
2023-03-06T10:59:24.556Z,94140.97
2023-03-06T11:01:53.172Z,94149.63
2023-03-06T11:04:26.462Z,94148.16
2023-03-06T11:07:14.453Z,94141.59
2023-03-06T11:09:41.617Z,94136.31
2023-03-06T11:12:22.270Z,94137.03
2023-03-06T11:15:16.676Z,94132.19
2023-03-06T11:17:51.390Z,94123.72
2023-03-06T11:20:18.930Z,94114.66
2023-03-06T11:22:49.369Z,94116.06
2023-03-06T11:25:18.649Z,94119.28
2023-03-06T11:27:51.022Z,94139.25
2023-03-06T11:30:21.207Z,94127.97
2023-03-06T11:32:53.264Z,94130.28
2023-03-06T11:35:24.195Z,94132.66
2023-03-06T11:37:56.688Z,94130.22
2023-03-06T11:40:29.585Z,94132.47
2023-03-06T11:43:02.406Z,94139.88
2023-03-06T11:45:34.064Z,94138.81
2023-03-06T11:48:17.756Z,94149.34
2023-03-06T11:50:46.885Z,94138.06
2023-03-06T11:53:15.967Z,94137.28
2023-03-06T11:55:50.415Z,94132.66
2023-03-06T11:58:44.047Z,94129.78
2023-03-06T12:01:18.324Z,94127.16
2023-03-06T12:04:26.817Z,94128.81
2023-03-06T12:07:03.778Z,94130.81
2023-03-06T12:09:44.817Z,94121.75
2023-03-06T12:12:24.587Z,94129.41
2023-03-06T12:15:06.731Z,94123.91
2023-03-06T12:17:51.870Z,94113.16
2023-03-06T12:20:39.840Z,94116.84
2023-03-06T12:23:19.078Z,94121.81
2023-03-06T12:25:56.911Z,94118.41
2023-03-06T12:28:45.967Z,94124.31
2023-03-06T12:31:33.340Z,94108.50
2023-03-06T12:34:14.110Z,94115.22
2023-03-06T12:36:54.992Z,94098.72
2023-03-06T12:39:30.341Z,94098.84
2023-03-06T12:42:23.189Z,94101.16
2023-03-06T12:45:19.062Z,94097.09
2023-03-06T12:47:47.959Z,94103.97
2023-03-06T12:50:21.847Z,94102.41
2023-03-06T12:52:53.380Z,94094.34
2023-03-06T12:55:24.273Z,94082.84
2023-03-06T12:57:57.111Z,94102.94
2023-03-06T13:01:05.122Z,94106.88
2023-03-06T13:03:47.447Z,94106.00
2023-03-06T13:06:49.789Z,94100.38
2023-03-06T13:09:28.680Z,94098.41
2023-03-06T13:12:23.027Z,94100.06
2023-03-06T13:14:54.740Z,94093.84
2023-03-06T13:17:27.702Z,94107.31
2023-03-06T13:20:35.008Z,94107.88
2023-03-06T13:23:51.187Z,94096.22
2023-03-06T13:26:56.396Z,94090.63
2023-03-06T13:30:23.104Z,94099.53
2023-03-06T13:32:52.312Z,94105.91
2023-03-06T13:35:55.645Z,94084.84
2023-03-06T13:38:37.434Z,94103.63
2023-03-06T13:41:32.911Z,94100.22
2023-03-06T13:44:20.689Z,94097.53
2023-03-06T13:46:57.129Z,94095.50
2023-03-06T13:49:24.984Z,94087.63
2023-03-06T13:52:06.842Z,94092.28
2023-03-06T13:54:50.512Z,94092.19
2023-03-06T13:57:32.806Z,94098.31
2023-03-06T14:00:32.396Z,94086.78
2023-03-06T14:03:28.970Z,94086.25
2023-03-06T14:05:58.192Z,94086.06
2023-03-06T14:08:27.561Z,94081.81
2023-03-06T14:11:02.514Z,94081.72
2023-03-06T14:13:41.893Z,94082.66
2023-03-06T14:16:19.025Z,94087.22
2023-03-06T14:18:47.790Z,94069.81
2023-03-06T14:21:21.251Z,94075.25
2023-03-06T14:24:00.059Z,94078.47
2023-03-06T14:26:31.604Z,94077.25
2023-03-06T14:29:00.122Z,94078.22
2023-03-06T14:31:30.088Z,94078.66
2023-03-06T14:34:01.073Z,94065.00
2023-03-06T14:36:32.135Z,94067.56
2023-03-06T14:39:07.025Z,94058.72
2023-03-06T14:41:35.277Z,94073.41
2023-03-06T14:44:15.871Z,94066.31
2023-03-06T14:46:42.485Z,94073.97
2023-03-06T14:49:10.021Z,94079.22
2023-03-06T14:51:42.083Z,94054.63
2023-03-06T14:54:18.842Z,94070.00
2023-03-06T14:56:48.572Z,94069.34
2023-03-06T14:59:20.877Z,94072.31
2023-03-06T15:01:50.341Z,94072.63
2023-03-06T15:04:24.885Z,94059.88
2023-03-06T15:06:54.177Z,94070.13
2023-03-06T15:09:25.361Z,94077.44
2023-03-06T15:11:54.918Z,94060.66
2023-03-06T15:14:30.009Z,94069.16
2023-03-06T15:16:56.545Z,94068.34
2023-03-06T15:19:23.233Z,94066.16
2023-03-06T15:21:51.514Z,94062.47
2023-03-06T15:24:34.178Z,94071.22
2023-03-06T15:27:03.501Z,94063.44
2023-03-06T15:29:30.199Z,94052.63
2023-03-06T15:32:16.156Z,94068.78
2023-03-06T15:34:42.728Z,94062.56
2023-03-06T15:37:28.018Z,94083.09
2023-03-06T15:40:08.668Z,94069.75
2023-03-06T15:42:36.156Z,94066.59
2023-03-06T15:45:15.070Z,94075.78
2023-03-06T15:47:43.174Z,94070.63
2023-03-06T15:50:14.831Z,94065.06
2023-03-06T15:52:41.421Z,94041.66
2023-03-06T15:55:10.390Z,94055.53
2023-03-06T15:57:37.676Z,94057.72
2023-03-06T16:00:21.692Z,94064.66
2023-03-06T16:02:58.851Z,94065.72
2023-03-06T16:05:26.806Z,94073.31
2023-03-06T16:07:53.866Z,94066.06
2023-03-06T16:10:22.871Z,94068.09
2023-03-06T16:12:53.318Z,94068.50
2023-03-06T16:15:21.571Z,94082.31
2023-03-06T16:17:49.008Z,94075.44
2023-03-06T16:20:16.824Z,94075.94
2023-03-06T16:22:44.174Z,94075.97
2023-03-06T16:25:11.054Z,94089.88
2023-03-06T16:27:38.248Z,94081.47
2023-03-06T16:30:05.747Z,94081.03
2023-03-06T16:32:32.735Z,94075.44
2023-03-06T16:34:59.300Z,94080.88
2023-03-06T16:37:25.874Z,94081.47
2023-03-06T16:39:52.426Z,94084.19
2023-03-06T16:42:19.042Z,94080.44
2023-03-06T16:44:46.104Z,94082.34
2023-03-06T16:47:12.599Z,94080.94
2023-03-06T16:49:39.188Z,94077.63
2023-03-06T16:52:07.758Z,94084.09
2023-03-06T16:54:34.601Z,94077.63
2023-03-06T16:57:01.138Z,94092.66
2023-03-06T16:59:27.619Z,94083.81
2023-03-06T17:01:54.809Z,94087.84
2023-03-06T17:04:21.259Z,94086.47
2023-03-06T17:06:47.786Z,94088.72
2023-03-06T17:09:14.366Z,94085.84
2023-03-06T17:11:42.618Z,94088.56
2023-03-06T17:14:09.079Z,94081.81
2023-03-06T17:16:38.478Z,94092.22
2023-03-06T17:19:05.727Z,94090.81
2023-03-06T17:21:34.630Z,94094.31
2023-03-06T17:24:02.839Z,94091.06
2023-03-06T17:26:29.463Z,94089.69
2023-03-06T17:28:58.605Z,94091.34
2023-03-06T17:31:27.374Z,94095.59
2023-03-06T17:33:59.845Z,94085.50
2023-03-06T17:36:27.804Z,94105.75
2023-03-06T17:38:55.750Z,94097.63
2023-03-06T17:41:23.847Z,94099.47
2023-03-06T17:43:51.787Z,94100.88
2023-03-06T17:46:18.711Z,94108.09
2023-03-06T17:48:45.544Z,94088.09
2023-03-06T17:51:12.477Z,94113.16
2023-03-06T17:53:43.463Z,94114.84
2023-03-06T17:56:13.538Z,94122.69
2023-03-06T17:58:40.070Z,94117.44
2023-03-06T18:01:17.044Z,94113.16
2023-03-06T18:03:45.075Z,94112.38
2023-03-06T18:06:11.865Z,94120.16
2023-03-06T18:08:39.605Z,94123.47
2023-03-06T18:11:10.512Z,94113.53
2023-03-06T18:13:41.808Z,94109.78
2023-03-06T18:16:09.905Z,94113.53
2023-03-06T18:18:38.880Z,94114.06
2023-03-06T18:21:07.470Z,94120.53
2023-03-06T18:23:35.369Z,94117.53
2023-03-06T18:26:11.542Z,94118.50
2023-03-06T18:28:41.543Z,94119.13
2023-03-06T18:31:14.651Z,94123.75
2023-03-06T18:33:41.064Z,94121.03
2023-03-06T18:36:07.948Z,94125.13
2023-03-06T18:38:34.469Z,94124.97
2023-03-06T18:41:08.250Z,94135.16
2023-03-06T18:43:34.841Z,94135.00
2023-03-06T18:46:02.123Z,94123.66
2023-03-06T18:48:28.711Z,94133.59
2023-03-06T18:50:55.505Z,94138.66
2023-03-06T18:53:22.176Z,94132.06
2023-03-06T18:55:49.781Z,94129.69
2023-03-06T18:58:21.055Z,94134.13
2023-03-06T19:00:47.581Z,94130.47
2023-03-06T19:03:14.105Z,94123.41
2023-03-06T19:05:41.258Z,94130.66
2023-03-06T19:08:08.796Z,94133.53
2023-03-06T19:10:36.336Z,94128.63
2023-03-06T19:13:03.010Z,94131.94
2023-03-06T19:15:30.137Z,94129.41
2023-03-06T19:17:56.902Z,94136.06
2023-03-06T19:20:23.844Z,94131.94
2023-03-06T19:22:50.782Z,94126.88
2023-03-06T19:25:17.422Z,94120.88
2023-03-06T19:27:45.342Z,94127.22
2023-03-06T19:30:12.998Z,94129.59
2023-03-06T19:32:40.520Z,94131.69
2023-03-06T19:35:09.744Z,94122.34
2023-03-06T19:37:36.542Z,94132.81
2023-03-06T19:40:03.801Z,94132.03
2023-03-06T19:42:30.298Z,94137.09
2023-03-06T19:44:56.748Z,94140.56
2023-03-06T19:47:23.472Z,94133.50
2023-03-06T19:49:50.561Z,94132.53
2023-03-06T19:52:17.560Z,94134.88
2023-03-06T19:54:46.271Z,94141.34
2023-03-06T19:57:12.753Z,94132.69
2023-03-06T19:59:39.204Z,94127.63
2023-03-06T20:02:05.980Z,94140.22
2023-03-06T20:04:33.438Z,94135.00
2023-03-06T20:07:00.710Z,94129.16
2023-03-06T20:09:27.149Z,94134.56
2023-03-06T20:11:53.779Z,94123.28
2023-03-06T20:14:20.326Z,94149.75
2023-03-06T20:16:46.843Z,94136.63
2023-03-06T20:19:13.336Z,94142.31
2023-03-06T20:21:39.790Z,94151.66
2023-03-06T20:24:08.282Z,94158.63
2023-03-06T20:26:36.211Z,94141.09
2023-03-06T20:29:02.902Z,94148.84
2023-03-06T20:31:30.040Z,94137.94
2023-03-06T20:33:58.659Z,94147.28
2023-03-06T20:36:28.048Z,94156.44
2023-03-06T20:38:55.000Z,94154.69
2023-03-06T20:41:23.978Z,94149.22
2023-03-06T20:43:50.925Z,94161.50
2023-03-06T20:46:22.786Z,94165.38
2023-03-06T20:48:51.064Z,94153.75
2023-03-06T20:51:19.498Z,94150.81
2023-03-06T20:53:46.610Z,94148.38
2023-03-06T20:56:14.062Z,94140.06
2023-03-06T20:58:41.176Z,94143.72
2023-03-06T21:01:07.736Z,94143.72
2023-03-06T21:03:34.508Z,94137.88
2023-03-06T21:06:04.102Z,94136.91
2023-03-06T21:08:31.858Z,94137.41
2023-03-06T21:10:58.313Z,94128.00
2023-03-06T21:13:25.249Z,94130.63
2023-03-06T21:15:52.713Z,94124.41
2023-03-06T21:18:22.505Z,94128.97
2023-03-06T21:20:50.736Z,94139.44
2023-03-06T21:23:17.558Z,94127.28
2023-03-06T21:25:50.085Z,94147.97
2023-03-06T21:28:16.955Z,94134.09
2023-03-06T21:30:44.119Z,94132.53
2023-03-06T21:33:13.178Z,94139.31
2023-03-06T21:35:41.193Z,94150.41
2023-03-06T21:38:14.890Z,94135.84
2023-03-06T21:40:44.054Z,94134.53
2023-03-06T21:43:10.685Z,94135.31
2023-03-06T21:45:37.448Z,94137.84
2023-03-06T21:48:04.399Z,94140.56
2023-03-06T21:50:31.586Z,94133.13
2023-03-06T21:52:57.993Z,94134.72
2023-03-06T21:55:24.405Z,94127.81
2023-03-06T21:57:51.689Z,94139.50
2023-03-06T22:00:19.314Z,94128.78
2023-03-06T22:02:46.833Z,94119.25
2023-03-06T22:05:13.251Z,94129.84
2023-03-06T22:07:40.885Z,94112.03
2023-03-06T22:10:11.219Z,94108.53
2023-03-06T22:12:38.818Z,94121.78
2023-03-06T22:15:06.602Z,94112.63
2023-03-06T22:17:33.250Z,94109.69
2023-03-06T22:19:59.660Z,94103.03
2023-03-06T22:22:26.263Z,94100.41
2023-03-06T22:24:53.500Z,94102.50
2023-03-06T22:27:19.949Z,94098.59
2023-03-06T22:29:46.424Z,94092.56
2023-03-06T22:32:13.021Z,94102.41
2023-03-06T22:34:39.516Z,94097.59
2023-03-06T22:37:05.925Z,94091.34
2023-03-06T22:39:32.392Z,94087.13
2023-03-06T22:41:59.460Z,94086.97
2023-03-06T22:44:25.935Z,94083.31
2023-03-06T22:46:52.746Z,94090.22
2023-03-06T22:49:19.182Z,94080.09
2023-03-06T22:51:45.572Z,94084.19
2023-03-06T22:54:11.953Z,94076.22
2023-03-06T22:56:38.384Z,94071.72
2023-03-06T22:59:05.434Z,94071.88
2023-03-06T23:01:33.485Z,94074.84
2023-03-06T23:04:01.886Z,94065.28
2023-03-06T23:06:30.503Z,94056.53
2023-03-06T23:08:59.255Z,94065.72
2023-03-06T23:11:27.360Z,94064.84
2023-03-06T23:14:13.905Z,94059.19
2023-03-06T23:16:58.777Z,94055.63
2023-03-06T23:19:44.087Z,94062.47
2023-03-06T23:22:28.943Z,94055.25
2023-03-06T23:25:14.254Z,94055.00
2023-03-06T23:27:40.756Z,94061.31
2023-03-06T23:30:09.675Z,94057.28
2023-03-06T23:32:36.185Z,94056.44
2023-03-06T23:35:02.793Z,94053.78
2023-03-06T23:37:29.348Z,94060.16
2023-03-06T23:39:56.065Z,94055.00
2023-03-06T23:42:22.753Z,94060.59
2023-03-06T23:44:49.174Z,94058.31
2023-03-06T23:47:16.527Z,94054.84
2023-03-06T23:49:43.131Z,94062.59
2023-03-06T23:52:09.864Z,94059.63
2023-03-06T23:54:36.332Z,94055.97
2023-03-06T23:57:03.017Z,94057.53
2023-03-06T23:59:29.466Z,94049.69
